Weymouth, Canada
Current Conditions -  °F | °C
As of 4:00 AM on Friday 28 Nov 2014 (Local Time) from CYQI Reporting Station
Overcast Overcast  
Wind Chill: 26°   Ceiling: 3000
Heat Index: 32°   Visibility: 15mi
Dew Point: 30°   Wind: 6mph
Humidity: 93%   Direction: 10°N
Pressure: 29.94"   Gusts: NA
Location:  44.42°N, 65.98°W
Report Text: CYQI 280800Z 01005KT 15SM OVC030 M00/M01 A2994 RMK SC8 SLP140
Loading
Personal Weather Stations






























Interactive Weather Map New forecast layout! Learn more

10-Day Weather Forecast

Advertisements
Track Severe Weather on mobile